createdAt,value
2019-01-25T00:01:05.669Z,58.70
2019-01-25T00:03:34.356Z,53.07
2019-01-25T00:06:02.955Z,54.17
2019-01-25T00:08:31.532Z,55.43
2019-01-25T00:11:00.101Z,53.17
2019-01-25T00:13:28.811Z,56.47
2019-01-25T00:15:57.452Z,58.63
2019-01-25T00:18:26.094Z,48.20
2019-01-25T00:20:55.946Z,54.43
2019-01-25T00:23:24.649Z,55.13
2019-01-25T00:25:53.231Z,63.80
2019-01-25T00:28:21.944Z,62.03
2019-01-25T00:30:50.952Z,65.60
2019-01-25T00:33:19.536Z,64.17
2019-01-25T00:35:48.183Z,59.43
2019-01-25T00:38:16.823Z,68.83
2019-01-25T00:40:45.418Z,62.63
2019-01-25T00:43:14.130Z,66.30
2019-01-25T00:45:42.748Z,68.50
2019-01-25T00:48:11.368Z,66.40
2019-01-25T00:50:40.039Z,67.57
2019-01-25T00:53:08.711Z,68.23
2019-01-25T00:55:37.499Z,65.60
2019-01-25T00:58:06.614Z,68.07
2019-01-25T01:00:35.411Z,72.33
2019-01-25T01:03:04.321Z,73.83
2019-01-25T01:05:32.935Z,73.00
2019-01-25T01:08:01.507Z,72.77
2019-01-25T01:10:30.130Z,72.00
2019-01-25T01:12:58.704Z,73.20
2019-01-25T01:15:27.688Z,68.57
2019-01-25T01:17:56.452Z,79.83
2019-01-25T01:20:25.145Z,71.20
2019-01-25T01:22:53.756Z,75.43
2019-01-25T01:25:22.418Z,69.97
2019-01-25T01:27:50.976Z,70.83
2019-01-25T01:30:21.942Z,68.60
2019-01-25T01:32:50.605Z,71.90
2019-01-25T01:35:19.424Z,69.50
2019-01-25T01:37:48.295Z,64.27
2019-01-25T01:40:22.100Z,69.83
2019-01-25T01:42:49.244Z,58.23
2019-01-25T01:45:17.924Z,73.10
2019-01-25T01:47:46.521Z,70.67
2019-01-25T01:50:15.851Z,71.53
2019-01-25T01:52:45.219Z,67.00
2019-01-25T01:55:14.041Z,73.13
2019-01-25T01:57:42.697Z,69.73
2019-01-25T02:00:20.859Z,69.90
2019-01-25T02:02:49.545Z,67.80
2019-01-25T02:05:18.152Z,65.53
2019-01-25T02:07:46.764Z,71.13
2019-01-25T02:10:18.158Z,73.03
2019-01-25T02:12:46.723Z,74.87
2019-01-25T02:15:16.650Z,73.73
2019-01-25T02:17:45.271Z,71.87
2019-01-25T02:20:16.988Z,71.47
2019-01-25T02:22:45.583Z,72.80
2019-01-25T02:25:14.368Z,67.27
2019-01-25T02:27:42.974Z,66.03
2019-01-25T02:30:14.716Z,70.33
2019-01-25T02:32:43.369Z,64.87
2019-01-25T02:35:11.988Z,73.60
2019-01-25T02:37:40.598Z,67.13
2019-01-25T02:40:10.461Z,69.33
2019-01-25T02:42:39.085Z,66.40
2019-01-25T02:45:09.339Z,79.37
2019-01-25T02:47:37.974Z,70.40
2019-01-25T02:50:09.024Z,75.73
2019-01-25T02:52:37.665Z,78.83
2019-01-25T02:55:06.577Z,72.30
2019-01-25T02:57:35.185Z,70.00
2019-01-25T03:00:05.230Z,72.53
2019-01-25T03:02:33.882Z,71.07
2019-01-25T03:05:02.517Z,73.63
2019-01-25T03:07:31.149Z,70.70
2019-01-25T03:09:59.751Z,79.03
2019-01-25T03:12:28.376Z,75.40
2019-01-25T03:14:56.976Z,75.67
2019-01-25T03:17:25.636Z,76.43
2019-01-25T03:19:54.316Z,69.40
2019-01-25T03:22:22.965Z,77.03
2019-01-25T03:24:51.541Z,79.50
2019-01-25T03:27:20.126Z,70.33
2019-01-25T03:29:48.726Z,78.00
2019-01-25T03:32:17.350Z,78.70
2019-01-25T03:34:45.928Z,75.33
2019-01-25T03:37:14.523Z,78.83
2019-01-25T03:39:43.165Z,84.83
2019-01-25T03:42:11.868Z,77.83
2019-01-25T03:44:40.490Z,73.03
2019-01-25T03:47:09.124Z,77.23
2019-01-25T03:49:37.773Z,80.47
2019-01-25T03:52:06.394Z,79.67
2019-01-25T03:54:35.015Z,80.60
2019-01-25T03:57:03.656Z,78.57
2019-01-25T03:59:32.235Z,82.23
2019-01-25T04:02:00.872Z,75.50
2019-01-25T04:04:29.457Z,84.50
2019-01-25T04:06:58.087Z,80.93
2019-01-25T04:09:26.650Z,82.10
2019-01-25T04:11:55.252Z,72.97
2019-01-25T04:14:23.844Z,84.37
2019-01-25T04:16:52.451Z,73.93
2019-01-25T04:19:21.055Z,83.80
2019-01-25T04:21:49.670Z,82.30
2019-01-25T04:24:18.306Z,87.33
2019-01-25T04:26:46.917Z,86.17
2019-01-25T04:29:15.527Z,87.70
2019-01-25T04:31:44.104Z,83.43
2019-01-25T04:34:12.748Z,86.13
2019-01-25T04:36:41.412Z,80.77
2019-01-25T04:39:10.041Z,76.60
2019-01-25T04:41:38.688Z,93.37
2019-01-25T04:44:07.555Z,80.67
2019-01-25T04:46:36.153Z,88.40
2019-01-25T04:49:04.779Z,87.83
2019-01-25T04:51:33.385Z,82.13
2019-01-25T04:54:01.991Z,86.57
2019-01-25T04:56:32.089Z,85.80
2019-01-25T04:59:00.690Z,87.53
2019-01-25T05:01:29.246Z,81.70
2019-01-25T05:03:57.872Z,82.90
2019-01-25T05:06:26.464Z,87.13
2019-01-25T05:08:55.159Z,90.67
2019-01-25T05:11:23.950Z,87.80
2019-01-25T05:13:52.652Z,84.53
2019-01-25T05:16:22.192Z,88.73
2019-01-25T05:18:50.829Z,89.00
2019-01-25T05:21:24.254Z,89.23
2019-01-25T05:23:52.983Z,82.27
2019-01-25T05:26:21.680Z,88.67
2019-01-25T05:28:50.314Z,85.63
2019-01-25T05:31:21.604Z,86.00
2019-01-25T05:33:55.155Z,93.13
2019-01-25T05:36:23.784Z,91.33
2019-01-25T05:38:52.393Z,95.23
2019-01-25T05:41:28.163Z,87.03
2019-01-25T05:43:51.412Z,94.07
2019-01-25T05:46:20.011Z,92.17
2019-01-25T05:48:48.669Z,89.13
2019-01-25T05:51:17.227Z,92.57
2019-01-25T05:53:50.552Z,94.07
2019-01-25T05:56:19.222Z,91.83
2019-01-25T05:58:47.835Z,87.40
2019-01-25T06:01:16.484Z,87.53
2019-01-25T06:03:45.089Z,86.97
2019-01-25T06:06:13.689Z,91.37
2019-01-25T06:08:44.077Z,97.33
2019-01-25T06:11:13.411Z,94.37
2019-01-25T06:13:45.963Z,84.97
2019-01-25T06:16:14.968Z,96.67
2019-01-25T06:18:43.658Z,87.57
2019-01-25T06:21:12.294Z,86.40
2019-01-25T06:23:41.461Z,89.57
2019-01-25T06:26:11.249Z,88.20
2019-01-25T06:28:39.890Z,91.23
2019-01-25T06:31:08.539Z,88.07
2019-01-25T06:33:37.207Z,90.27
2019-01-25T06:36:07.326Z,96.23
2019-01-25T06:38:36.393Z,96.50
2019-01-25T06:41:05.700Z,92.05
2019-01-25T06:43:34.281Z,92.33
2019-01-25T06:46:02.845Z,99.43
2019-01-25T06:48:31.440Z,94.57
2019-01-25T06:51:00.159Z,95.03
2019-01-25T06:53:28.794Z,100.20
2019-01-25T06:55:57.380Z,94.33
2019-01-25T06:58:44.477Z,97.78
2019-01-25T07:01:38.132Z,102.23
2019-01-25T07:04:06.728Z,92.80
2019-01-25T07:06:35.506Z,101.67
2019-01-25T07:09:07.035Z,110.97
2019-01-25T07:11:42.035Z,103.37
2019-01-25T07:14:06.078Z,100.73
2019-01-25T07:16:34.735Z,99.00
2019-01-25T07:19:03.712Z,104.93
2019-01-25T07:21:32.302Z,98.30
2019-01-25T07:24:00.915Z,103.80
2019-01-25T07:26:29.503Z,107.43
2019-01-25T07:28:58.164Z,102.70
2019-01-25T07:31:26.907Z,103.10
2019-01-25T07:33:55.523Z,103.87
2019-01-25T07:36:24.211Z,101.17
2019-01-25T07:38:53.509Z,102.77
2019-01-25T07:41:22.130Z,102.83
2019-01-25T07:43:50.709Z,98.60
2019-01-25T07:46:19.313Z,102.93
2019-01-25T07:48:47.975Z,105.67
2019-01-25T07:51:16.612Z,101.77
2019-01-25T07:53:45.254Z,100.03
2019-01-25T07:56:13.879Z,102.73
2019-01-25T07:58:42.479Z,107.67
2019-01-25T08:01:11.692Z,98.82
2019-01-25T08:03:40.757Z,104.80
2019-01-25T08:06:09.463Z,102.57
2019-01-25T08:08:38.180Z,102.83
2019-01-25T08:11:06.914Z,104.17
2019-01-25T08:13:35.565Z,97.60
2019-01-25T08:16:04.150Z,91.37
2019-01-25T08:18:32.767Z,98.57
2019-01-25T08:21:01.388Z,113.77
2019-01-25T08:23:30.004Z,108.70
2019-01-25T08:25:58.552Z,94.47
2019-01-25T08:28:27.136Z,106.60
2019-01-25T08:30:55.768Z,97.80
2019-01-25T08:33:24.509Z,101.43
2019-01-25T08:35:53.202Z,104.03
2019-01-25T08:38:21.829Z,106.20
2019-01-25T08:40:50.600Z,105.40
2019-01-25T08:43:19.161Z,105.03
2019-01-25T08:45:49.489Z,103.17
2019-01-25T08:48:18.329Z,103.60
2019-01-25T08:50:46.995Z,104.40
2019-01-25T08:53:16.201Z,105.87
2019-01-25T08:55:44.922Z,112.07
2019-01-25T08:58:13.909Z,108.63
2019-01-25T09:00:42.737Z,113.13
2019-01-25T09:03:11.386Z,109.60
2019-01-25T09:05:40.075Z,109.33
2019-01-25T09:08:08.708Z,105.90
2019-01-25T09:10:37.341Z,105.00
2019-01-25T09:13:05.916Z,106.97
2019-01-25T09:15:34.915Z,106.27
2019-01-25T09:18:03.556Z,105.73
2019-01-25T09:20:32.387Z,100.10
2019-01-25T09:23:01.030Z,102.27
2019-01-25T09:25:29.618Z,106.43
2019-01-25T09:27:58.242Z,104.73
2019-01-25T09:30:26.909Z,106.17
2019-01-25T09:32:55.553Z,111.83
2019-01-25T09:35:24.587Z,113.10
2019-01-25T09:37:53.278Z,114.00
2019-01-25T09:40:23.575Z,100.17
2019-01-25T09:42:52.588Z,102.72
2019-01-25T09:45:21.550Z,109.72
2019-01-25T09:47:50.159Z,119.35
2019-01-25T09:50:19.062Z,114.00
2019-01-25T09:52:48.022Z,114.63
2019-01-25T09:55:18.811Z,106.40
2019-01-25T09:57:48.151Z,108.53
2019-01-25T10:00:25.923Z,114.73
2019-01-25T10:02:54.880Z,108.37
2019-01-25T10:05:23.766Z,117.47
2019-01-25T10:07:52.432Z,105.17
2019-01-25T10:10:21.424Z,112.57
2019-01-25T10:12:50.052Z,112.53
2019-01-25T10:15:20.807Z,112.37
2019-01-25T10:17:49.432Z,114.73
2019-01-25T10:20:19.005Z,119.57
2019-01-25T10:22:47.735Z,112.90
2019-01-25T10:25:16.373Z,103.63
2019-01-25T10:27:45.099Z,120.87
2019-01-25T10:30:16.709Z,117.00
2019-01-25T10:32:45.319Z,111.57
2019-01-25T10:35:13.962Z,113.67
2019-01-25T10:37:42.615Z,113.80
2019-01-25T10:40:14.665Z,111.00
2019-01-25T10:42:45.566Z,112.30
2019-01-25T10:45:17.411Z,114.07
2019-01-25T10:47:46.067Z,114.10
2019-01-25T10:50:14.692Z,108.90
2019-01-25T10:52:43.313Z,110.93
2019-01-25T10:55:12.080Z,102.60
2019-01-25T10:57:40.716Z,107.27
2019-01-25T11:00:11.965Z,111.43
2019-01-25T11:02:40.587Z,110.13
2019-01-25T11:05:11.633Z,123.30
2019-01-25T11:07:40.314Z,114.53
2019-01-25T11:10:10.507Z,106.87
2019-01-25T11:12:39.113Z,128.63
2019-01-25T11:15:10.047Z,122.03
2019-01-25T11:17:38.680Z,134.13
2019-01-25T11:20:11.005Z,111.95
2019-01-25T11:22:39.609Z,118.77
2019-01-25T11:25:11.549Z,124.50
2019-01-25T11:27:40.130Z,115.07
2019-01-25T11:30:10.028Z,115.93
2019-01-25T11:32:38.631Z,112.93
2019-01-25T11:35:07.373Z,109.37
2019-01-25T11:37:36.051Z,124.47
2019-01-25T11:40:07.679Z,114.30
2019-01-25T11:42:36.246Z,123.07
2019-01-25T11:45:05.444Z,118.30
2019-01-25T11:47:34.097Z,122.43
2019-01-25T11:50:02.763Z,109.07
2019-01-25T11:52:31.403Z,100.77
2019-01-25T11:55:00.003Z,116.37
2019-01-25T11:57:28.682Z,112.73
2019-01-25T11:59:57.332Z,102.87
2019-01-25T12:02:25.941Z,106.83
2019-01-25T12:04:54.653Z,104.47
2019-01-25T12:07:23.277Z,105.07
2019-01-25T12:09:51.908Z,107.23
2019-01-25T12:12:20.806Z,98.23
2019-01-25T12:14:49.462Z,109.57
2019-01-25T12:17:18.127Z,108.70
2019-01-25T12:19:46.729Z,104.60
2019-01-25T12:22:15.328Z,118.70
2019-01-25T12:24:44.283Z,111.90
2019-01-25T12:27:12.863Z,101.73
2019-01-25T12:29:41.549Z,99.53
2019-01-25T12:32:10.418Z,98.23
2019-01-25T12:34:39.244Z,101.63
2019-01-25T12:37:07.835Z,96.07
2019-01-25T12:39:36.477Z,95.23
2019-01-25T12:42:05.387Z,91.80
2019-01-25T12:44:34.034Z,88.10
2019-01-25T12:47:02.617Z,98.13
2019-01-25T12:49:31.243Z,101.97
2019-01-25T12:52:08.168Z,90.33
2019-01-25T12:54:33.993Z,99.60
2019-01-25T12:57:02.648Z,95.87
2019-01-25T12:59:31.235Z,89.27
2019-01-25T13:02:00.439Z,91.53
2019-01-25T13:04:29.046Z,83.43
2019-01-25T13:06:57.712Z,89.43
2019-01-25T13:09:26.390Z,88.43
2019-01-25T13:11:55.125Z,79.93
2019-01-25T13:14:23.732Z,84.80
2019-01-25T13:16:52.449Z,83.27
2019-01-25T13:19:21.459Z,92.70
2019-01-25T13:21:50.043Z,94.80
2019-01-25T13:24:18.659Z,99.70
2019-01-25T13:26:47.282Z,99.58
2019-01-25T13:29:15.914Z,106.43
2019-01-25T13:31:44.818Z,100.13
2019-01-25T13:34:13.509Z,98.37
2019-01-25T13:36:42.087Z,102.60
2019-01-25T13:39:10.949Z,106.87
2019-01-25T13:41:39.540Z,108.43
2019-01-25T13:44:08.143Z,107.83
2019-01-25T13:46:36.728Z,104.07
2019-01-25T13:49:05.388Z,103.07
2019-01-25T13:51:33.999Z,107.53
2019-01-25T13:54:02.627Z,108.70
2019-01-25T13:56:31.239Z,101.57
2019-01-25T13:58:59.884Z,98.50
2019-01-25T14:01:34.604Z,104.63
2019-01-25T14:03:58.948Z,110.40
2019-01-25T14:06:27.551Z,105.30
2019-01-25T14:08:56.245Z,99.03
2019-01-25T14:11:25.071Z,103.73
2019-01-25T14:13:53.809Z,101.10
2019-01-25T14:16:22.407Z,106.93
2019-01-25T14:18:52.219Z,106.50
2019-01-25T14:21:21.132Z,102.73
2019-01-25T14:23:49.763Z,108.73
2019-01-25T14:26:18.410Z,100.00
2019-01-25T14:28:47.056Z,99.30
2019-01-25T14:31:15.703Z,110.40
2019-01-25T14:33:44.354Z,95.67
2019-01-25T14:36:12.971Z,94.37
2019-01-25T14:38:41.600Z,92.40
2019-01-25T14:41:10.196Z,98.23
2019-01-25T14:43:39.185Z,101.20
2019-01-25T14:46:07.805Z,99.30
2019-01-25T14:48:38.191Z,100.57
2019-01-25T14:51:06.986Z,107.40
2019-01-25T14:53:36.306Z,80.77
2019-01-25T14:56:04.903Z,66.60
2019-01-25T14:58:34.170Z,64.77
2019-01-25T15:01:02.787Z,60.60
2019-01-25T15:03:31.430Z,62.20
2019-01-25T15:05:59.999Z,65.50
2019-01-25T15:08:28.587Z,69.47
2019-01-25T15:10:57.217Z,75.53
2019-01-25T15:13:25.875Z,71.90
2019-01-25T15:15:54.572Z,71.67
2019-01-25T15:18:23.255Z,68.63
2019-01-25T15:20:51.888Z,67.23
2019-01-25T15:23:20.506Z,66.90
2019-01-25T15:25:49.131Z,66.87
2019-01-25T15:28:17.828Z,50.63
2019-01-25T15:30:46.549Z,54.33
2019-01-25T15:33:15.186Z,49.13
2019-01-25T15:35:43.806Z,36.50
2019-01-25T15:38:12.463Z,24.10
2019-01-25T15:40:41.051Z,21.07
2019-01-25T15:43:09.656Z,13.20
2019-01-25T15:45:38.306Z,17.70
2019-01-25T15:48:07.447Z,9.00
2019-01-25T15:50:36.030Z,7.90
2019-01-25T15:53:04.888Z,13.87
2019-01-25T15:55:33.848Z,7.07
2019-01-25T15:58:02.504Z,9.67
2019-01-25T16:00:31.253Z,9.97
2019-01-25T16:02:59.866Z,12.30
2019-01-25T16:05:28.537Z,10.77
2019-01-25T16:07:57.205Z,10.43
2019-01-25T16:10:25.822Z,16.47
2019-01-25T16:12:54.652Z,20.75
2019-01-25T16:15:25.387Z,22.83
2019-01-25T16:17:53.986Z,26.90
2019-01-25T16:20:22.646Z,28.83
2019-01-25T16:22:51.396Z,31.30
2019-01-25T16:25:22.594Z,31.60
2019-01-25T16:27:51.462Z,30.27
2019-01-25T16:30:22.445Z,31.90
2019-01-25T16:32:51.316Z,34.20
2019-01-25T16:35:19.997Z,38.30
2019-01-25T16:37:48.678Z,31.30
2019-01-25T16:40:18.327Z,29.33
2019-01-25T16:42:46.980Z,33.37
2019-01-25T16:45:21.432Z,39.77
2019-01-25T16:47:50.076Z,34.53
2019-01-25T16:50:23.589Z,29.67
2019-01-25T16:52:49.513Z,34.37
2019-01-25T16:55:18.132Z,32.17
2019-01-25T16:57:46.763Z,34.93
2019-01-25T17:00:29.635Z,41.37
2019-01-25T17:02:58.346Z,44.37
2019-01-25T17:05:27.021Z,36.50
2019-01-25T17:07:55.640Z,45.93
2019-01-25T17:10:24.354Z,43.43
2019-01-25T17:12:53.038Z,42.67
2019-01-25T17:15:21.789Z,45.60
2019-01-25T17:17:50.364Z,43.17
2019-01-25T17:20:21.486Z,44.07
2019-01-25T17:22:51.975Z,46.20
2019-01-25T17:25:20.645Z,58.53
2019-01-25T17:27:49.255Z,50.27
2019-01-25T17:30:25.833Z,49.80
2019-01-25T17:32:55.502Z,45.00
2019-01-25T17:35:24.339Z,51.83
2019-01-25T17:37:53.045Z,56.90
2019-01-25T17:40:23.812Z,42.83
2019-01-25T17:42:52.463Z,58.40
2019-01-25T17:45:21.123Z,56.33
2019-01-25T17:47:49.764Z,55.03
2019-01-25T17:50:18.454Z,59.50
2019-01-25T17:52:47.105Z,54.70
2019-01-25T17:55:15.926Z,57.47
2019-01-25T17:57:44.546Z,59.10
2019-01-25T18:00:21.661Z,61.80
2019-01-25T18:02:50.604Z,61.30
2019-01-25T18:05:19.228Z,53.60
2019-01-25T18:07:47.908Z,62.97
2019-01-25T18:10:16.897Z,62.20
2019-01-25T18:12:45.778Z,60.27
2019-01-25T18:15:14.672Z,56.63
2019-01-25T18:17:43.379Z,70.20
2019-01-25T18:20:14.143Z,53.37
2019-01-25T18:22:42.900Z,63.30
2019-01-25T18:25:13.611Z,56.63
2019-01-25T18:27:45.729Z,65.83
2019-01-25T18:30:22.272Z,53.40
2019-01-25T18:32:51.339Z,58.97
2019-01-25T18:35:19.956Z,57.53
2019-01-25T18:37:48.627Z,54.53
2019-01-25T18:40:17.253Z,55.17
2019-01-25T18:42:47.698Z,51.43
2019-01-25T18:45:16.741Z,59.57
2019-01-25T18:47:45.902Z,58.77
2019-01-25T18:50:15.254Z,59.27
2019-01-25T18:52:44.014Z,52.03
2019-01-25T18:55:15.316Z,53.67
2019-01-25T18:57:44.006Z,51.97
2019-01-25T19:00:15.742Z,48.27
2019-01-25T19:02:44.477Z,50.40
2019-01-25T19:05:13.154Z,50.10
2019-01-25T19:07:42.108Z,48.27
2019-01-25T19:10:14.138Z,49.93
2019-01-25T19:12:42.953Z,52.30
2019-01-25T19:15:13.300Z,51.57
2019-01-25T19:17:41.970Z,53.47
2019-01-25T19:20:12.027Z,54.70
2019-01-25T19:22:41.113Z,51.77
2019-01-25T19:25:10.030Z,54.23
2019-01-25T19:27:38.719Z,61.60
2019-01-25T19:30:12.667Z,55.20
2019-01-25T19:32:41.339Z,58.10
2019-01-25T19:35:10.149Z,54.27
2019-01-25T19:37:38.773Z,56.10
2019-01-25T19:40:10.007Z,61.77
2019-01-25T19:42:41.466Z,63.27
2019-01-25T19:45:12.047Z,60.87
2019-01-25T19:47:40.791Z,58.50
2019-01-25T19:50:11.437Z,67.37
2019-01-25T19:52:40.051Z,69.83
2019-01-25T19:55:11.766Z,67.30
2019-01-25T19:57:40.554Z,68.83
2019-01-25T20:00:14.804Z,67.57
2019-01-25T20:02:43.492Z,70.40
2019-01-25T20:05:12.940Z,68.60
2019-01-25T20:07:41.689Z,79.07
2019-01-25T20:10:11.048Z,76.57
2019-01-25T20:12:39.744Z,81.37
2019-01-25T20:15:10.307Z,88.77
2019-01-25T20:17:41.265Z,81.57
2019-01-25T20:20:13.655Z,86.53
2019-01-25T20:22:42.576Z,75.47
2019-01-25T20:25:11.508Z,78.00
2019-01-25T20:27:40.221Z,83.73
2019-01-25T20:30:12.324Z,83.47
2019-01-25T20:32:41.128Z,77.03
2019-01-25T20:35:13.682Z,77.47
2019-01-25T20:37:42.576Z,72.17
2019-01-25T20:40:13.202Z,78.97
2019-01-25T20:42:41.875Z,70.87
2019-01-25T20:45:13.760Z,73.43
2019-01-25T20:47:42.505Z,75.27
2019-01-25T20:50:13.874Z,69.17
2019-01-25T20:52:42.600Z,72.70
2019-01-25T20:55:17.095Z,76.57
2019-01-25T20:57:45.961Z,69.97
2019-01-25T21:00:17.556Z,74.22
2019-01-25T21:02:46.241Z,69.73
2019-01-25T21:05:15.076Z,65.50
2019-01-25T21:07:43.867Z,67.27
2019-01-25T21:10:14.643Z,77.27
2019-01-25T21:12:43.451Z,65.27
2019-01-25T21:15:13.746Z,75.50
2019-01-25T21:17:42.558Z,68.73
2019-01-25T21:20:14.354Z,65.87
2019-01-25T21:22:42.975Z,72.43
2019-01-25T21:25:11.904Z,84.97
2019-01-25T21:27:40.859Z,66.70
2019-01-25T21:30:13.427Z,63.92
2019-01-25T21:32:42.221Z,74.57
2019-01-25T21:35:10.827Z,67.03
2019-01-25T21:37:39.629Z,66.17
2019-01-25T21:40:11.224Z,67.67
2019-01-25T21:42:39.867Z,65.47
2019-01-25T21:45:10.862Z,64.90
2019-01-25T21:47:39.488Z,63.20
2019-01-25T21:50:28.697Z,60.33
2019-01-25T21:52:57.331Z,58.70
2019-01-25T21:55:25.959Z,59.40
2019-01-25T21:57:54.686Z,63.67
2019-01-25T22:00:25.796Z,53.30
2019-01-25T22:02:54.452Z,68.73
2019-01-25T22:05:23.077Z,61.60
2019-01-25T22:07:51.696Z,59.63
2019-01-25T22:10:25.964Z,67.37
2019-01-25T22:12:54.613Z,58.27
2019-01-25T22:15:23.206Z,57.50
2019-01-25T22:17:51.841Z,58.60
2019-01-25T22:20:25.040Z,55.53
2019-01-25T22:22:53.686Z,61.83
2019-01-25T22:25:22.410Z,61.93
2019-01-25T22:27:52.446Z,45.50
2019-01-25T22:30:22.849Z,61.90
2019-01-25T22:32:51.563Z,56.63
2019-01-25T22:35:20.222Z,61.73
2019-01-25T22:37:48.848Z,56.57
2019-01-25T22:40:19.696Z,51.13
2019-01-25T22:42:48.352Z,59.00
2019-01-25T22:45:19.067Z,52.93
2019-01-25T22:47:50.399Z,54.37
2019-01-25T22:50:21.248Z,48.70
2019-01-25T22:52:49.844Z,49.33
2019-01-25T22:55:18.748Z,46.03
2019-01-25T22:57:47.376Z,46.20
2019-01-25T23:00:52.688Z,39.27
2019-01-25T23:03:28.096Z,39.57
2019-01-25T23:06:26.668Z,44.17
2019-01-25T23:08:55.564Z,46.83
2019-01-25T23:11:26.501Z,44.00
2019-01-25T23:13:55.191Z,46.93
2019-01-25T23:16:23.969Z,45.77
2019-01-25T23:18:52.544Z,37.50
2019-01-25T23:21:21.146Z,46.27
2019-01-25T23:23:49.756Z,38.87
2019-01-25T23:26:18.336Z,44.13
2019-01-25T23:28:46.977Z,55.00
2019-01-25T23:31:15.607Z,50.33
2019-01-25T23:33:44.244Z,44.17
2019-01-25T23:36:12.851Z,45.07
2019-01-25T23:38:41.468Z,48.27
2019-01-25T23:41:10.079Z,48.80
2019-01-25T23:43:38.717Z,53.27
2019-01-25T23:46:13.681Z,49.13
2019-01-25T23:48:37.655Z,46.07
2019-01-25T23:51:06.297Z,36.13
2019-01-25T23:53:34.910Z,41.43
2019-01-25T23:56:03.851Z,50.33
2019-01-25T23:58:32.487Z,43.13
